Time;durP1;ratioP1;P1;durP2;ratioP2;P2;SDS_P1;SDS_P2;PMS_P1;PMS_P2;Temp;Humidity;BMP_temperature;BMP_pressure;BME280_temperature;BME280_humidity;BME280_pressure;Samples;Min_cycle;Max_cycle;Signal;HPM_P1;HPM_P2
2022/05/03 00:01:17;;;;;;;14.30;12.50;;;;;;;12.32;51.58;100220.15;104884;1287;22585;-79
2022/05/03 00:03:54;;;;;;;14.90;11.80;;;;;;;12.23;51.73;100213.08;104799;1287;23978;-80
2022/05/03 00:06:30;;;;;;;15.40;11.70;;;;;;;12.19;51.91;100206.11;105018;1287;24332;-85
2022/05/03 00:09:06;;;;;;;18.40;14.30;;;;;;;12.13;52.01;100208.15;104751;1287;22695;-82
2022/05/03 00:11:33;;;;;;;18.40;13.30;;;;;;;12.11;52.25;100205.54;104954;1287;25190;-82
2022/05/03 00:14:21;;;;;;;18.80;13.40;;;;;;;12.12;52.24;100201.80;104901;1287;24552;-83
2022/05/03 00:19:38;;;;;;;18.10;13.10;;;;;;;12.07;52.50;100205.60;107379;1290;23038;-94
2022/05/03 00:22:23;;;;;;;18.40;13.20;;;;;;;12.04;52.46;100205.27;106469;1293;22753;-93
2022/05/03 00:24:57;;;;;;;23.10;15.00;;;;;;;12.01;52.61;100206.74;106238;1293;22655;-94
2022/05/03 00:27:27;;;;;;;16.50;12.90;;;;;;;11.93;52.84;100197.86;106374;1293;22574;-94
2022/05/03 00:30:00;;;;;;;22.70;14.50;;;;;;;11.93;52.87;100200.70;105839;1294;24292;-93
2022/05/03 00:32:28;;;;;;;18.30;15.20;;;;;;;11.90;53.03;100196.34;106245;1294;24699;-94
2022/05/03 00:35:00;;;;;;;29.90;15.40;;;;;;;11.86;53.14;100199.23;104301;1293;23016;-84
2022/05/03 00:37:27;;;;;;;24.60;16.60;;;;;;;11.85;53.28;100199.26;104083;1294;25290;-84
2022/05/03 00:39:54;;;;;;;19.80;14.50;;;;;;;11.85;53.33;100202.80;104138;1294;25341;-83
2022/05/03 00:42:26;;;;;;;21.40;15.70;;;;;;;11.84;53.48;100210.75;104643;1293;22654;-81
2022/05/03 00:45:04;;;;;;;18.40;15.20;;;;;;;11.84;53.40;100209.86;103917;1297;22580;-83
2022/05/03 00:47:49;;;;;;;22.60;17.90;;;;;;;11.78;53.48;100210.14;104431;1290;23788;-81
2022/05/03 00:50:25;;;;;;;24.10;17.60;;;;;;;11.71;53.68;100207.41;104978;1290;24298;-82
2022/05/03 00:53:08;;;;;;;25.10;19.50;;;;;;;11.64;53.68;100212.49;104699;1290;22575;-86
2022/05/03 00:56:00;;;;;;;29.50;19.00;;;;;;;11.56;53.85;100208.38;104502;1290;24325;-85
2022/05/03 00:58:27;;;;;;;21.90;18.90;;;;;;;11.52;53.96;100205.10;104417;1291;24569;-82
2022/05/03 01:01:15;;;;;;;24.50;20.10;;;;;;;11.46;54.00;100205.72;104482;1290;22569;-82
2022/05/03 01:03:54;;;;;;;23.80;19.80;;;;;;;11.40;54.04;100207.58;104532;1290;22576;-82
2022/05/03 01:06:47;;;;;;;29.40;20.40;;;;;;;11.36;54.32;100201.80;104577;1290;22634;-80
2022/05/03 01:09:23;;;;;;;20.80;17.80;;;;;;;11.36;54.30;100200.94;105431;1290;22565;-83
2022/05/03 01:12:09;;;;;;;;;;;;;;;11.34;54.34;100199.91;107374;1290;22575;-82
2022/05/03 01:14:48;;;;;;;26.60;19.60;;;;;;;11.33;54.50;100196.77;106032;1290;22589;-90
2022/05/03 01:17:30;;;;;;;25.30;19.40;;;;;;;11.36;54.42;100193.89;104516;1290;23618;-83
2022/05/03 01:20:05;;;;;;;24.10;19.40;;;;;;;11.37;54.44;100188.58;104582;1290;22619;-86
2022/05/03 01:22:35;;;;;;;25.60;20.60;;;;;;;11.41;54.41;100191.18;104427;1290;25280;-86
2022/05/03 01:25:11;;;;;;;22.90;19.10;;;;;;;11.40;54.35;100191.36;104664;1289;22623;-84
2022/05/03 01:27:44;;;;;;;;;;;;;;;11.37;54.40;100187.52;104786;1289;24268;-79
2022/05/03 01:30:11;;;;;;;24.60;18.60;;;;;;;11.40;54.46;100187.48;105063;1290;25289;-80
2022/05/03 01:32:45;;;;;;;22.40;17.40;;;;;;;11.45;54.37;100186.70;104909;1290;22557;-81
2022/05/03 01:35:14;;;;;;;22.00;18.80;;;;;;;11.43;54.20;100186.91;104986;1290;25321;-81
2022/05/03 01:38:05;;;;;;;21.70;17.50;;;;;;;11.36;54.35;100190.89;105032;1289;22557;-81
2022/05/03 01:41:04;;;;;;;25.30;18.40;;;;;;;11.34;54.32;100191.81;104747;1290;22502;-78
2022/05/03 01:43:52;;;;;;;23.90;18.80;;;;;;;11.31;54.31;100195.54;106097;1290;22611;-83
2022/05/03 01:46:27;;;;;;;20.70;16.50;;;;;;;11.32;54.02;100197.48;106369;1290;23958;-87
2022/05/03 01:52:01;;;;;;;20.00;14.90;;;;;;;11.30;53.60;100200.14;105897;1290;25398;-85
2022/05/03 01:54:44;;;;;;;18.60;15.80;;;;;;;11.29;53.54;100197.16;105619;1290;22599;-91
2022/05/03 01:57:17;;;;;;;19.60;15.60;;;;;;;11.29;53.39;100196.63;104964;1290;23279;-80
2022/05/03 02:00:02;;;;;;;23.70;16.30;;;;;;;11.29;53.46;100194.52;104616;1290;25292;-81
2022/05/03 02:02:59;;;;;;;20.50;14.80;;;;;;;11.26;53.38;100191.91;104427;1291;22579;-82
2022/05/03 02:05:39;;;;;;;17.80;14.80;;;;;;;11.22;53.32;100195.33;104733;1289;22675;-81
2022/05/03 02:08:11;;;;;;;21.50;14.80;;;;;;;11.14;53.28;100196.68;104549;1290;24260;-81
2022/05/03 02:10:56;;;;;;;18.30;12.80;;;;;;;11.10;53.43;100198.67;104582;1290;25530;-80
2022/05/03 02:16:58;;;;;;;20.80;13.30;;;;;;;10.99;53.43;100199.34;104155;1297;22551;-78
2022/05/03 02:19:47;;;;;;;18.60;14.10;;;;;;;10.95;53.51;100199.95;104337;1296;22611;-81
2022/05/03 02:22:20;;;;;;;13.20;10.50;;;;;;;10.91;53.43;100196.99;104603;1290;25403;-81
2022/05/03 02:25:11;;;;;;;18.40;13.50;;;;;;;10.83;53.58;100198.51;104646;1290;25392;-81
2022/05/03 02:27:46;;;;;;;18.70;13.60;;;;;;;10.78;53.62;100197.34;104694;1291;24313;-77
2022/05/03 02:30:16;;;;;;;14.90;12.10;;;;;;;10.74;53.75;100204.80;104728;1290;22687;-79
2022/05/03 02:33:04;;;;;;;18.40;12.80;;;;;;;10.67;53.72;100203.11;104828;1289;22500;-79
2022/05/03 02:35:34;;;;;;;15.70;11.80;;;;;;;10.63;53.99;100203.16;104810;1290;25490;-79
2022/05/03 02:38:06;;;;;;;16.00;11.90;;;;;;;10.59;53.93;100203.75;104488;1290;22562;-81
2022/05/03 02:40:43;;;;;;;20.30;12.00;;;;;;;10.55;54.08;100200.80;104569;1290;25369;-81
2022/05/03 02:43:12;;;;;;;12.50;10.80;;;;;;;10.49;54.01;100196.13;104356;1290;23956;-81
2022/05/03 02:45:50;;;;;;;12.90;9.60;;;;;;;10.43;53.98;100199.66;104714;1290;22572;-81
2022/05/03 02:48:33;;;;;;;13.70;11.10;;;;;;;10.38;54.04;100197.79;104693;1290;23024;-77
2022/05/03 02:51:07;;;;;;;15.30;11.60;;;;;;;10.37;54.04;100204.14;104600;1290;25432;-81
2022/05/03 02:53:55;;;;;;;18.60;10.90;;;;;;;10.33;54.12;100206.83;104692;1290;26551;-83
2022/05/03 02:56:27;;;;;;;14.50;10.40;;;;;;;10.31;54.18;100202.98;104752;1289;24291;-80
2022/05/03 02:59:16;;;;;;;13.10;10.80;;;;;;;10.29;54.01;100208.27;104626;1290;25469;-82
2022/05/03 03:01:59;;;;;;;14.30;10.80;;;;;;;10.23;54.12;100203.23;104478;1290;23030;-81
2022/05/03 03:04:58;;;;;;;15.80;10.50;;;;;;;10.23;54.07;100212.38;104576;1290;22694;-82
2022/05/03 03:07:31;;;;;;;12.80;9.50;;;;;;;10.22;54.08;100208.88;104760;1290;24379;-86
2022/05/03 03:10:06;;;;;;;14.30;9.90;;;;;;;10.19;53.98;100213.30;104609;1290;22564;-82
2022/05/03 03:13:21;;;;;;;13.90;10.60;;;;;;;10.17;53.85;100209.98;104789;1290;22550;-83
2022/05/03 03:15:49;;;;;;;17.50;10.60;;;;;;;10.16;53.69;100211.92;105035;1290;23843;-80
2022/05/03 03:18:22;;;;;;;15.90;10.60;;;;;;;10.19;53.59;100208.73;105385;1290;22551;-83
2022/05/03 03:21:04;;;;;;;13.50;10.10;;;;;;;10.19;53.40;100203.27;105159;1290;22711;-82
2022/05/03 03:23:32;;;;;;;11.20;8.50;;;;;;;10.17;53.36;100209.80;105106;1290;25233;-80
2022/05/03 03:26:00;;;;;;;17.10;10.50;;;;;;;10.13;53.51;100211.61;105039;1290;24333;-82
2022/05/03 03:28:29;;;;;;;16.80;10.30;;;;;;;10.18;53.51;100213.49;104528;1290;26587;-84
2022/05/03 03:30:58;;;;;;;17.60;10.00;;;;;;;10.17;53.44;100218.42;104348;1290;23454;-84
2022/05/03 03:33:27;;;;;;;19.80;10.50;;;;;;;10.15;53.52;100215.82;104462;1291;22583;-83
2022/05/03 03:35:56;;;;;;;19.70;10.30;;;;;;;10.17;53.56;100218.61;104815;1290;25391;-83
2022/05/03 03:38:36;;;;;;;12.70;9.90;;;;;;;10.18;53.51;100218.07;104739;1290;22818;-77
2022/05/03 03:41:03;;;;;;;18.40;10.40;;;;;;;10.18;53.49;100225.29;104574;1290;24290;-81
2022/05/03 03:43:31;;;;;;;15.00;10.80;;;;;;;10.19;53.53;100222.81;104771;1290;22583;-81
2022/05/03 03:45:58;;;;;;;11.80;9.40;;;;;;;10.20;53.39;100224.55;104696;1290;24474;-79
2022/05/03 03:48:25;;;;;;;17.30;10.40;;;;;;;10.15;53.31;100216.16;104794;1290;25416;-80
2022/05/03 03:50:55;;;;;;;14.50;10.20;;;;;;;10.14;53.29;100221.98;104659;1290;24364;-81
2022/05/03 03:53:23;;;;;;;16.60;11.30;;;;;;;10.13;53.18;100226.21;106103;1290;22639;-78
2022/05/03 03:55:50;;;;;;;18.70;10.50;;;;;;;10.10;53.34;100224.48;105519;1290;24348;-79
2022/05/03 03:58:18;;;;;;;16.00;9.00;;;;;;;10.11;53.36;100223.07;105248;1290;22560;-80
2022/05/03 04:00:46;;;;;;;18.10;9.80;;;;;;;10.12;53.26;100226.23;104679;1290;24266;-80
2022/05/03 04:03:14;;;;;;;14.90;9.10;;;;;;;10.15;53.42;100225.67;104688;1290;25274;-79
2022/05/03 04:05:44;;;;;;;11.80;9.40;;;;;;;10.11;53.24;100226.05;104409;1291;24245;-77
2022/05/03 04:08:19;;;;;;;17.80;8.90;;;;;;;10.07;53.32;100225.92;104712;1290;24827;-77
2022/05/03 04:10:49;;;;;;;11.70;8.80;;;;;;;10.05;53.40;100226.46;104618;1290;24807;-78
2022/05/03 04:13:17;;;;;;;10.30;7.80;;;;;;;10.02;53.31;100226.48;104188;1293;26551;-78
2022/05/03 04:15:44;;;;;;;12.60;8.10;;;;;;;10.00;53.09;100230.91;104103;1294;24330;-81
2022/05/03 04:18:11;;;;;;;11.90;8.30;;;;;;;9.99;53.29;100234.98;104646;1293;22668;-82
2022/05/03 04:20:38;;;;;;;11.60;8.20;;;;;;;10.00;53.29;100236.19;104259;1293;22566;-81
2022/05/03 04:23:06;;;;;;;15.60;9.90;;;;;;;10.01;53.02;100242.87;104261;1293;22554;-82
2022/05/03 04:25:33;;;;;;;11.90;8.30;;;;;;;10.01;53.03;100241.82;104364;1296;24428;-80
2022/05/03 04:28:00;;;;;;;13.80;9.20;;;;;;;10.07;52.87;100242.46;104089;1296;22883;-82
2022/05/03 04:30:27;;;;;;;10.80;8.40;;;;;;;10.10;52.74;100239.98;104240;1296;23267;-80
2022/05/03 04:32:54;;;;;;;12.60;7.90;;;;;;;10.11;52.59;100243.83;104584;1290;22562;-79
2022/05/03 04:35:20;;;;;;;9.30;7.10;;;;;;;10.13;52.39;100243.98;104702;1290;22572;-81
2022/05/03 04:37:47;;;;;;;10.90;7.50;;;;;;;10.11;52.35;100249.10;105029;1290;25298;-76
2022/05/03 04:40:14;;;;;;;9.40;7.20;;;;;;;10.13;52.47;100250.15;105693;1288;23865;-78
2022/05/03 04:42:44;;;;;;;10.20;8.00;;;;;;;10.16;52.57;100255.39;106029;1290;22562;-84
2022/05/03 04:45:11;;;;;;;12.30;8.40;;;;;;;10.23;52.81;100255.69;105577;1295;22683;-83
2022/05/03 04:47:38;;;;;;;11.00;8.70;;;;;;;10.31;53.00;100257.55;106649;1296;22552;-87
2022/05/03 04:50:06;;;;;;;10.60;8.50;;;;;;;10.32;52.94;100254.53;107282;1296;22709;-93
2022/05/03 04:52:33;;;;;;;11.30;8.10;;;;;;;10.35;52.97;100253.63;107350;1296;22612;-86
2022/05/03 04:54:59;;;;;;;12.60;7.90;;;;;;;10.42;52.68;100256.90;106372;1299;25298;-84
2022/05/03 04:57:26;;;;;;;10.80;7.60;;;;;;;10.43;52.60;100257.23;105944;1305;22751;-84
2022/05/03 04:59:53;;;;;;;12.60;7.50;;;;;;;10.45;52.14;100261.80;106302;1304;212540;-89
2022/05/03 05:02:20;;;;;;;8.80;7.00;;;;;;;10.40;51.90;100264.48;106748;1304;22626;-88
2022/05/03 05:04:47;;;;;;;10.20;6.70;;;;;;;10.46;51.93;100267.98;106696;1300;22784;-87
2022/05/03 05:07:14;;;;;;;10.10;6.20;;;;;;;10.46;51.40;100265.16;106459;1300;22586;-88
2022/05/03 05:10:23;;;;;;;7.40;5.80;;;;;;;10.44;51.02;100270.09;106833;1299;22959;-91
2022/05/03 05:12:30;;;;;;;8.90;5.90;;;;;;;10.48;50.37;100271.31;107021;1296;22582;-84
2022/05/03 05:14:57;;;;;;;7.50;5.00;;;;;;;10.49;50.21;100267.95;107461;1290;22557;-88
2022/05/03 05:17:24;;;;;;;9.00;6.10;;;;;;;10.51;50.15;100269.34;107988;1290;22599;-82
2022/05/03 05:19:52;;;;;;;10.70;5.70;;;;;;;10.54;50.00;100267.36;107878;1289;22585;-90
2022/05/03 05:22:22;;;;;;;10.00;6.00;;;;;;;10.58;50.05;100260.11;107583;1289;22858;-88
2022/05/03 05:24:50;;;;;;;5.90;5.10;;;;;;;10.71;49.66;100264.73;107528;1289;22517;-88
2022/05/03 05:27:18;;;;;;;6.50;5.10;;;;;;;10.69;49.48;100271.60;107196;1290;22571;-87
2022/05/03 05:29:45;;;;;;;8.10;5.70;;;;;;;10.70;49.15;100270.53;107290;1290;24427;-88
2022/05/03 05:32:12;;;;;;;6.80;5.30;;;;;;;10.73;49.02;100265.73;107256;1290;22633;-88
2022/05/03 05:34:39;;;;;;;9.50;6.20;;;;;;;10.74;48.74;100265.57;107139;1290;22544;-89
2022/05/03 05:37:06;;;;;;;11.80;6.60;;;;;;;10.70;48.72;100267.54;106465;1290;22584;-90
2022/05/03 05:39:33;;;;;;;6.00;4.10;;;;;;;10.74;48.62;100267.49;105799;1290;24243;-89
2022/05/03 05:42:01;;;;;;;8.90;5.30;;;;;;;10.74;48.28;100267.50;107008;1290;22715;-90
2022/05/03 05:44:28;;;;;;;6.20;4.50;;;;;;;10.70;48.30;100261.91;107951;1290;22590;-83
2022/05/03 05:46:55;;;;;;;7.20;4.30;;;;;;;10.74;48.30;100266.09;106625;1291;24420;-90
2022/05/03 05:49:22;;;;;;;4.60;3.50;;;;;;;10.77;48.14;100264.11;106261;1290;22479;-89
2022/05/03 05:51:49;;;;;;;6.70;4.20;;;;;;;10.76;47.82;100265.70;106531;1291;23167;-88
2022/05/03 05:54:16;;;;;;;5.40;4.30;;;;;;;10.81;47.96;100270.41;106517;1290;22635;-90
2022/05/03 05:56:44;;;;;;;6.20;4.60;;;;;;;10.85;47.93;100268.95;106236;1290;22859;-88
2022/05/03 05:59:11;;;;;;;4.60;3.40;;;;;;;10.90;47.65;100269.06;105703;1290;22854;-91
2022/05/03 06:01:41;;;;;;;8.60;4.00;;;;;;;10.92;47.72;100268.87;105350;1290;22564;-92
2022/05/03 06:04:08;;;;;;;5.50;3.70;;;;;;;10.94;47.59;100268.49;104512;1296;24265;-86
2022/05/03 06:06:36;;;;;;;3.90;3.00;;;;;;;11.01;47.57;100277.56;105487;1296;22985;-92
2022/05/03 06:09:03;;;;;;;5.90;3.80;;;;;;;11.02;47.11;100269.63;105885;1296;22629;-91
2022/05/03 06:11:30;;;;;;;7.70;3.60;;;;;;;11.08;47.27;100277.64;106369;1294;23860;-88
2022/05/03 06:13:57;;;;;;;9.70;4.70;;;;;;;11.11;46.96;100274.63;105642;1296;22570;-91
2022/05/03 06:16:24;;;;;;;7.60;3.90;;;;;;;11.17;46.92;100281.59;104869;1296;24391;-89
2022/05/03 06:18:51;;;;;;;5.90;3.70;;;;;;;11.23;46.76;100277.63;105728;1296;22560;-90
2022/05/03 06:21:18;;;;;;;8.50;3.80;;;;;;;11.28;46.71;100275.44;105478;1296;24336;-87
2022/05/03 06:23:45;;;;;;;4.30;3.20;;;;;;;11.35;46.75;100276.95;104700;1290;25288;-82
2022/05/03 06:26:12;;;;;;;4.40;3.10;;;;;;;11.44;46.54;100277.52;104596;1289;22569;-82
2022/05/03 06:28:45;;;;;;;5.40;3.20;;;;;;;11.52;45.93;100283.04;104661;1290;24278;-81
2022/05/03 06:31:12;;;;;;;3.80;2.80;;;;;;;11.56;45.73;100280.35;104158;1293;22599;-81
2022/05/03 06:33:39;;;;;;;5.10;2.50;;;;;;;11.59;45.77;100279.25;104127;1293;24893;-81
2022/05/03 06:36:13;;;;;;;3.30;2.90;;;;;;;11.65;45.69;100284.27;104078;1293;22557;-84
2022/05/03 06:38:40;;;;;;;4.70;3.30;;;;;;;11.71;45.80;100285.05;103972;1294;22593;-82
2022/05/03 06:41:08;;;;;;;3.70;2.70;;;;;;;11.78;45.77;100282.13;104142;1293;24343;-81
2022/05/03 06:43:35;;;;;;;5.90;3.30;;;;;;;11.84;45.71;100283.80;104075;1294;22592;-80
2022/05/03 06:46:03;;;;;;;6.60;3.30;;;;;;;11.91;45.65;100283.67;104121;1293;22579;-81
2022/05/03 06:48:30;;;;;;;3.80;3.20;;;;;;;11.99;45.62;100282.48;104068;1294;22557;-80
2022/05/03 06:50:57;;;;;;;7.80;3.10;;;;;;;12.09;45.43;100280.77;104295;1293;25586;-80
2022/05/03 06:53:24;;;;;;;5.50;3.70;;;;;;;12.15;45.36;100285.61;104139;1293;24242;-83
2022/05/03 06:55:51;;;;;;;6.00;3.50;;;;;;;12.19;45.30;100285.91;104191;1293;25282;-82
2022/05/03 06:58:18;;;;;;;10.20;3.60;;;;;;;12.27;45.44;100287.52;104170;1293;23173;-83
2022/05/03 07:00:45;;;;;;;7.60;4.20;;;;;;;12.36;45.48;100288.07;104017;1294;22572;-82
2022/05/03 07:03:12;;;;;;;4.10;3.00;;;;;;;12.46;45.07;100288.94;104177;1293;24352;-84
2022/05/03 07:05:41;;;;;;;6.20;3.20;;;;;;;12.53;44.98;100291.27;104296;1293;22641;-85
2022/05/03 07:08:09;;;;;;;4.60;3.00;;;;;;;12.62;44.95;100288.84;104259;1293;24184;-84
2022/05/03 07:10:37;;;;;;;4.20;2.90;;;;;;;12.72;44.66;100286.87;104251;1293;23203;-85
2022/05/03 07:13:04;;;;;;;6.70;3.10;;;;;;;12.81;43.94;100295.16;103936;1294;22551;-86
2022/05/03 07:15:33;;;;;;;4.00;2.90;;;;;;;12.90;43.87;100297.46;104329;1290;22550;-83
2022/05/03 07:23:31;;;;;;;3.80;2.10;;;;;;;13.13;43.24;100294.52;104858;1290;25401;-84
2022/05/03 07:25:59;;;;;;;5.80;2.80;;;;;;;13.20;42.81;100297.03;104459;1290;25852;-84
2022/05/03 07:28:27;;;;;;;4.90;3.40;;;;;;;13.26;42.60;100301.85;104358;1293;22741;-82
2022/05/03 07:30:54;;;;;;;4.00;3.20;;;;;;;13.28;42.15;100307.10;104720;1290;22729;-84
2022/05/03 07:33:21;;;;;;;3.00;2.30;;;;;;;13.24;41.60;100309.30;104610;1290;24246;-89
2022/05/03 07:35:49;;;;;;;4.10;2.50;;;;;;;13.21;41.62;100303.89;105467;1290;22566;-88
2022/05/03 07:38:16;;;;;;;4.40;2.70;;;;;;;13.20;41.17;100309.58;104812;1290;24057;-87
2022/05/03 07:40:43;;;;;;;5.40;2.80;;;;;;;13.16;41.46;100306.64;104526;1291;24730;-80
2022/05/03 07:43:10;;;;;;;4.20;2.60;;;;;;;13.20;41.60;100307.11;105288;1290;22645;-86
2022/05/03 07:45:37;;;;;;;3.90;2.90;;;;;;;13.27;41.77;100305.37;104536;1290;22495;-86
2022/05/03 07:48:05;;;;;;;4.00;2.80;;;;;;;13.37;41.69;100313.63;105167;1290;22716;-84
2022/05/03 07:50:33;;;;;;;7.30;2.60;;;;;;;13.48;41.94;100310.40;105406;1289;22849;-80
2022/05/03 07:53:00;;;;;;;3.10;2.40;;;;;;;13.61;41.71;100307.11;105717;1290;22540;-84
2022/05/03 07:55:27;;;;;;;3.10;2.80;;;;;;;13.74;41.54;100311.44;105777;1289;25394;-80
2022/05/03 07:57:54;;;;;;;3.60;2.90;;;;;;;13.82;41.56;100308.58;105815;1293;22577;-83
2022/05/03 08:00:21;;;;;;;4.40;2.70;;;;;;;13.98;41.20;100318.83;106414;1290;22510;-82
2022/05/03 08:02:48;;;;;;;5.10;2.90;;;;;;;14.06;40.46;100314.20;106876;1288;24283;-84
2022/05/03 08:05:16;;;;;;;6.30;2.70;;;;;;;14.08;40.23;100310.43;106559;1290;22583;-84
2022/05/03 08:07:44;;;;;;;5.60;2.30;;;;;;;14.10;40.08;100313.03;106447;1290;25290;-82
2022/05/03 08:10:12;;;;;;;8.60;2.70;;;;;;;14.16;39.91;100313.97;107040;1289;22529;-87
2022/05/03 08:12:41;;;;;;;4.70;3.30;;;;;;;14.20;40.02;100308.71;107382;1290;22919;-83
2022/05/03 08:15:08;;;;;;;8.60;3.40;;;;;;;14.34;40.37;100312.80;107504;1289;23957;-86
2022/05/03 08:17:35;;;;;;;3.50;2.90;;;;;;;14.51;40.31;100307.57;107417;1290;25466;-81
2022/05/03 08:20:03;;;;;;;3.50;2.60;;;;;;;14.67;39.80;100309.27;107594;1289;24054;-86
2022/05/03 08:22:33;;;;;;;5.20;2.50;;;;;;;14.81;39.63;100316.70;106431;1290;22509;-87
2022/05/03 08:25:01;;;;;;;5.30;3.30;;;;;;;14.95;39.20;100306.58;105076;1290;25273;-85
2022/05/03 08:27:28;;;;;;;4.40;2.50;;;;;;;15.09;39.31;100307.25;105260;1290;25395;-87
2022/05/03 08:29:55;;;;;;;7.40;2.70;;;;;;;15.22;38.92;100313.05;105250;1290;22559;-87
2022/05/03 08:32:22;;;;;;;4.10;2.60;;;;;;;15.32;38.79;100312.06;105173;1289;22552;-87
2022/05/03 08:34:49;;;;;;;2.40;2.20;;;;;;;15.37;38.39;100315.46;105266;1290;23407;-85
2022/05/03 08:42:49;;;;;;;4.30;3.00;;;;;;;15.57;37.76;100311.64;105155;1290;23076;-90
2022/05/03 08:45:18;;;;;;;4.40;2.90;;;;;;;15.57;37.47;100312.17;104838;1288;24397;-90
2022/05/03 08:47:47;;;;;;;4.90;3.40;;;;;;;15.59;37.97;100312.13;104893;1290;22884;-90
2022/05/03 08:50:22;;;;;;;4.20;3.10;;;;;;;15.73;37.71;100313.27;104969;1288;22573;-91
2022/05/03 08:52:56;;;;;;;4.50;3.10;;;;;;;15.82;37.53;100310.52;104743;1290;22766;-92
2022/05/03 08:55:24;;;;;;;6.30;4.70;;;;;;;15.88;37.34;100309.81;104593;1293;22503;-91
2022/05/03 08:57:51;;;;;;;5.80;2.90;;;;;;;15.84;36.81;100314.55;104577;1294;24240;-88
2022/05/03 09:00:20;;;;;;;6.50;2.50;;;;;;;15.82;36.74;100309.63;104878;1294;22565;-89
2022/05/03 09:02:51;;;;;;;4.90;2.60;;;;;;;15.87;36.95;100309.84;104343;1293;22583;-84
2022/05/03 09:05:20;;;;;;;3.10;2.70;;;;;;;15.89;36.62;100305.33;104169;1293;25398;-83
2022/05/03 09:07:59;;;;;;;6.00;2.70;;;;;;;15.93;37.17;100310.17;104363;1294;24277;-77
2022/05/03 09:10:31;;;;;;;5.40;3.00;;;;;;;16.09;36.35;100304.52;103763;1299;22575;-81
2022/05/03 09:13:24;;;;;;;4.50;3.10;;;;;;;15.97;36.28;100308.27;103615;1296;22638;-80
2022/05/03 09:15:55;;;;;;;5.70;3.30;;;;;;;15.96;36.32;100303.17;103979;1296;24270;-79
2022/05/03 09:18:26;;;;;;;6.10;3.10;;;;;;;15.91;36.62;100296.39;103990;1296;25665;-83
2022/05/03 09:23:50;;;;;;;4.60;2.90;;;;;;;16.05;36.44;100283.17;104023;1296;26584;-85
2022/05/03 09:26:22;;;;;;;3.80;2.60;;;;;;;16.17;36.58;100290.22;104400;1296;25296;-82
2022/05/03 09:28:50;;;;;;;3.80;2.70;;;;;;;16.08;35.99;100296.72;105296;1291;22515;-81
2022/05/03 09:31:32;;;;;;;6.30;3.80;;;;;;;15.95;36.04;100292.19;105462;1290;22652;-88
2022/05/03 09:34:17;;;;;;;5.40;3.50;;;;;;;15.96;35.86;100295.34;105157;1290;22728;-93
2022/05/03 09:37:05;;;;;;;5.00;2.70;;;;;;;16.02;36.28;100294.29;105192;1290;24244;-88
2022/05/03 09:39:47;;;;;;;8.90;3.10;;;;;;;16.22;35.43;100295.23;106138;1290;22562;-85
2022/05/03 09:42:16;;;;;;;4.90;3.40;;;;;;;16.29;35.97;100293.40;105697;1290;24387;-83
2022/05/03 09:44:54;;;;;;;4.10;2.90;;;;;;;16.50;35.60;100291.59;105311;1290;22547;-84
2022/05/03 09:47:26;;;;;;;4.40;2.80;;;;;;;16.70;35.48;100288.23;104621;1290;22570;-84
2022/05/03 09:49:54;;;;;;;4.60;2.70;;;;;;;16.84;35.46;100280.23;104773;1290;22764;-83
2022/05/03 09:52:28;;;;;;;3.20;2.80;;;;;;;17.05;35.25;100283.19;104663;1290;23963;-83
2022/05/03 09:55:06;;;;;;;4.40;2.20;;;;;;;17.14;35.34;100278.63;104672;1290;25351;-79
2022/05/03 09:57:36;;;;;;;4.00;2.30;;;;;;;17.37;34.92;100272.38;104548;1290;22686;-80
2022/05/03 10:00:09;;;;;;;4.80;2.30;;;;;;;17.57;34.18;100272.89;104940;1290;22759;-82
2022/05/03 10:02:43;;;;;;;5.30;2.30;;;;;;;17.57;33.53;100276.23;107056;1290;22602;-79
2022/05/03 10:05:51;;;;;;;5.30;2.30;;;;;;;17.55;33.59;100273.48;105330;1290;24246;-92
2022/05/03 10:08:21;;;;;;;3.20;2.40;;;;;;;17.64;33.84;100277.20;104453;1290;22557;-81
2022/05/03 10:10:56;;;;;;;3.60;2.50;;;;;;;17.42;33.20;100281.46;104621;1291;22713;-81
2022/05/03 10:13:27;;;;;;;3.50;2.00;;;;;;;17.08;33.29;100280.27;105813;1289;22945;-93
2022/05/03 10:21:50;;;;;;;2.40;1.90;;;;;;;17.17;34.31;100274.94;105973;1291;22582;-92
2022/05/03 10:24:18;;;;;;;2.90;2.40;;;;;;;17.39;33.78;100283.19;106256;1291;22558;-92
2022/05/03 10:27:02;;;;;;;3.30;2.50;;;;;;;17.36;33.55;100275.98;106606;1290;22845;-92
2022/05/03 10:29:35;;;;;;;7.10;2.30;;;;;;;17.27;33.70;100276.34;105941;1290;22503;-90
2022/05/03 10:32:05;;;;;;;5.30;3.00;;;;;;;17.17;34.29;100270.70;106367;1290;24300;-90
2022/05/03 10:34:44;;;;;;;3.80;2.20;;;;;;;17.35;34.17;100271.96;106630;1290;22498;-92
2022/05/03 10:37:20;;;;;;;3.70;2.30;;;;;;;17.52;34.14;100276.07;106779;1290;22566;-91
2022/05/03 10:39:53;;;;;;;7.90;3.00;;;;;;;17.81;33.80;100274.73;107442;1289;22637;-93
2022/05/03 10:42:30;;;;;;;3.00;2.60;;;;;;;18.01;33.73;100276.25;107377;1290;25389;-90
2022/05/03 10:45:03;;;;;;;5.30;2.50;;;;;;;17.99;33.98;100271.86;107136;1290;23279;-89
2022/05/03 10:47:48;;;;;;;3.50;2.40;;;;;;;17.97;34.30;100277.66;106980;1289;22643;-91
2022/05/03 10:50:18;;;;;;;3.90;2.40;;;;;;;18.08;34.16;100278.83;106734;1290;25470;-91
2022/05/03 10:52:54;;;;;;;6.10;2.60;;;;;;;18.46;33.69;100277.60;107277;1290;22583;-93
2022/05/03 10:55:26;;;;;;;3.80;2.30;;;;;;;18.61;32.76;100279.06;107461;1289;25503;-94
2022/05/03 10:58:17;;;;;;;3.20;2.30;;;;;;;18.37;33.03;100279.02;107375;1290;22558;-90
2022/05/03 11:01:05;;;;;;;3.70;3.30;;;;;;;18.13;33.56;100270.25;107428;1290;22581;-92
2022/05/03 11:03:39;;;;;;;3.80;2.90;;;;;;;17.90;33.76;100274.20;106946;1290;22579;-92
2022/05/03 11:06:25;;;;;;;3.00;2.10;;;;;;;17.64;33.75;100272.59;106843;1290;22659;-91
2022/05/03 11:09:19;;;;;;;5.30;2.40;;;;;;;17.42;34.19;100275.93;106628;1289;23215;-88
2022/05/03 11:11:54;;;;;;;3.60;2.40;;;;;;;17.57;34.41;100272.84;106684;1290;22544;-91
2022/05/03 11:14:24;;;;;;;4.60;2.70;;;;;;;17.73;34.50;100271.33;106906;1290;22744;-90
2022/05/03 11:17:14;;;;;;;7.20;2.80;;;;;;;17.71;34.14;100271.23;106442;1290;22629;-90
2022/05/03 11:19:48;;;;;;;5.00;2.90;;;;;;;17.52;34.17;100273.60;107103;1290;22586;-91
2022/05/03 11:22:29;;;;;;;4.20;3.00;;;;;;;17.62;34.29;100272.27;107469;1290;22643;-90
2022/05/03 11:25:13;;;;;;;3.70;2.70;;;;;;;17.76;34.33;100265.86;107312;1290;25386;-91
2022/05/03 11:27:43;;;;;;;6.90;3.00;;;;;;;17.77;34.28;100264.92;107117;1290;22615;-91
2022/05/03 11:30:19;;;;;;;;;;;;;;;17.67;34.07;100267.67;106847;1295;22659;-90
2022/05/03 11:32:46;;;;;;;7.10;2.90;;;;;;;17.54;34.04;100277.24;106999;1295;22591;-91
2022/05/03 11:35:22;;;;;;;6.00;2.30;;;;;;;17.40;34.13;100275.48;107131;1295;23199;-92
2022/05/03 11:37:55;;;;;;;2.60;2.00;;;;;;;17.29;33.86;100279.28;106824;1299;22668;-91
2022/05/03 11:40:34;;;;;;;3.70;2.40;;;;;;;17.38;33.61;100270.77;106930;1296;22614;-92
2022/05/03 11:43:14;;;;;;;5.00;2.50;;;;;;;17.41;34.08;100271.38;107024;1295;22535;-90
2022/05/03 11:45:44;;;;;;;4.50;2.50;;;;;;;17.42;34.17;100269.73;106366;1296;22576;-91
2022/05/03 11:48:16;;;;;;;4.70;2.10;;;;;;;17.42;33.76;100267.23;106361;1294;22824;-91
2022/05/03 11:56:31;;;;;;;6.50;2.30;;;;;;;17.07;34.26;100269.98;106518;1295;22610;-93
2022/05/03 11:59:22;;;;;;;3.00;2.60;;;;;;;17.37;34.13;100259.42;106693;1295;22615;-91
2022/05/03 12:02:21;;;;;;;5.50;2.80;;;;;;;17.59;34.12;100258.89;106437;1295;22729;-91
2022/05/03 12:05:03;;;;;;;2.40;2.20;;;;;;;17.76;34.05;100256.44;106089;1296;22699;-90
2022/05/03 12:07:39;;;;;;;3.90;1.80;;;;;;;17.82;33.48;100263.48;105996;1295;22796;-94
2022/05/03 12:10:36;;;;;;;6.10;3.00;;;;;;;17.64;33.76;100263.14;106012;1296;22585;-91
2022/05/03 12:13:15;;;;;;;4.60;2.20;;;;;;;17.70;33.61;100257.55;105768;1290;22565;-90